createdAt,value
2018-05-09T00:00:02.460Z,16.6
2018-05-09T00:05:02.383Z,16.2
2018-05-09T00:10:03.038Z,16.2
2018-05-09T00:20:03.231Z,16.2
2018-05-09T00:25:02.757Z,16.0
2018-05-09T00:30:03.285Z,15.8
2018-05-09T00:35:02.821Z,16.0
2018-05-09T00:40:02.475Z,16.2
2018-05-09T00:45:03.011Z,15.8
2018-05-09T00:50:02.592Z,15.8
2018-05-09T00:55:02.424Z,15.8
2018-05-09T01:00:03.011Z,15.8
2018-05-09T01:05:02.560Z,15.8
2018-05-09T01:10:03.176Z,15.8
2018-05-09T01:15:02.676Z,15.8
2018-05-09T01:20:03.227Z,15.6
2018-05-09T01:25:02.814Z,15.6
2018-05-09T01:30:03.373Z,15.5
2018-05-09T01:35:02.955Z,15.5
2018-05-09T01:40:02.538Z,15.1
2018-05-09T01:45:03.379Z,15.1
2018-05-09T01:50:02.922Z,15.1
2018-05-09T01:55:02.812Z,14.8
2018-05-09T02:00:03.265Z,14.6
2018-05-09T02:05:02.832Z,14.6
2018-05-09T02:10:02.378Z,14.6
2018-05-09T02:15:02.890Z,14.3
2018-05-09T02:20:02.476Z,14.3
2018-05-09T02:25:03.056Z,14.3
2018-05-09T02:30:02.656Z,14.0
2018-05-09T02:35:03.271Z,13.6
2018-05-09T02:40:02.847Z,13.3
2018-05-09T02:45:02.568Z,13.5
2018-05-09T02:50:03.180Z,13.5
2018-05-09T02:55:03.049Z,13.5
2018-05-09T03:00:02.679Z,13.5
2018-05-09T03:05:03.203Z,13.3
2018-05-09T03:10:02.762Z,13.3
2018-05-09T03:15:03.485Z,13.3
2018-05-09T03:20:03.081Z,13.5
2018-05-09T03:25:02.604Z,13.6
2018-05-09T03:30:03.176Z,13.6
2018-05-09T03:35:02.700Z,13.6
2018-05-09T03:40:03.236Z,13.6
2018-05-09T03:45:02.777Z,13.5
2018-05-09T03:55:02.959Z,13.6
2018-05-09T04:00:02.641Z,13.6
2018-05-09T04:05:03.178Z,13.5
2018-05-09T04:10:02.728Z,13.3
2018-05-09T04:15:03.278Z,13.5
2018-05-09T04:20:02.815Z,13.5
2018-05-09T04:25:02.401Z,13.3
2018-05-09T04:30:02.955Z,13.3
2018-05-09T04:35:02.650Z,13.6
2018-05-09T04:40:03.224Z,13.6
2018-05-09T04:45:02.817Z,13.8
2018-05-09T04:50:02.365Z,13.8
2018-05-09T04:55:02.885Z,14.0
2018-05-09T05:00:03.372Z,14.0
2018-05-09T05:05:02.954Z,14.1
2018-05-09T05:10:02.528Z,14.3
2018-05-09T05:15:03.081Z,14.5
2018-05-09T05:20:02.655Z,14.5
2018-05-09T05:25:03.190Z,14.8
2018-05-09T05:30:02.680Z,14.8
2018-05-09T05:35:03.199Z,15.1
2018-05-09T05:40:02.760Z,15.1
2018-05-09T05:45:03.367Z,15.1
2018-05-09T05:50:02.748Z,15.3
2018-05-09T05:55:03.322Z,15.8
2018-05-09T06:00:02.947Z,15.8
2018-05-09T06:05:02.525Z,16.0
2018-05-09T06:10:03.151Z,16.2
2018-05-09T06:15:02.715Z,16.3
2018-05-09T06:20:03.221Z,16.7
2018-05-09T06:25:02.721Z,17.0
2018-05-09T06:30:03.458Z,17.0
2018-05-09T06:35:02.960Z,17.3
2018-05-09T06:40:02.593Z,17.7
2018-05-09T06:45:03.275Z,18.1
2018-05-09T06:50:02.976Z,18.6
2018-05-09T06:55:03.175Z,18.7
2018-05-09T07:00:02.772Z,19.0
2018-05-09T07:05:03.178Z,19.1
2018-05-09T07:10:02.749Z,19.5
2018-05-09T07:15:03.283Z,19.7
2018-05-09T07:20:02.800Z,20.0
2018-05-09T07:25:02.472Z,20.2
2018-05-09T07:30:03.306Z,20.6
2018-05-09T07:35:02.826Z,20.6
2018-05-09T07:40:02.436Z,21.2
2018-05-09T07:45:02.981Z,21.2
2018-05-09T07:50:02.612Z,21.2
2018-05-09T07:55:03.167Z,21.6
2018-05-09T08:00:02.742Z,22.0
2018-05-09T08:05:02.428Z,22.5
2018-05-09T08:10:03.065Z,22.6
2018-05-09T08:15:02.619Z,23.2
2018-05-09T08:20:03.275Z,23.6
2018-05-09T08:25:02.781Z,24.2
2018-05-09T08:30:03.317Z,24.0
2018-05-09T08:35:02.877Z,25.0
2018-05-09T08:40:02.431Z,24.7
2018-05-09T08:45:03.120Z,25.3
2018-05-09T08:50:02.743Z,26.2
2018-05-09T08:55:03.563Z,26.1
2018-05-09T09:00:03.118Z,26.8
2018-05-09T09:05:02.738Z,27.1
2018-05-09T09:10:03.358Z,27.5
2018-05-09T09:15:02.931Z,26.7
2018-05-09T09:20:02.648Z,27.7
2018-05-09T09:25:03.433Z,27.8
2018-05-09T09:30:02.978Z,28.3
2018-05-09T09:35:02.537Z,28.7
2018-05-09T09:40:03.152Z,29.2
2018-05-09T09:45:02.794Z,29.2
2018-05-09T09:50:02.385Z,28.2
2018-05-09T09:55:02.907Z,28.3
2018-05-09T10:00:02.541Z,30.1
2018-05-09T10:05:03.232Z,30.2
2018-05-09T10:10:03.014Z,30.3
2018-05-09T10:15:02.572Z,29.7
2018-05-09T10:20:03.121Z,29.2
2018-05-09T10:25:02.646Z,31.0
2018-05-09T10:30:03.228Z,29.6
2018-05-09T10:35:02.845Z,30.2
2018-05-09T10:40:02.433Z,30.1
2018-05-09T10:45:03.047Z,30.7
2018-05-09T10:50:02.649Z,29.7
2018-05-09T10:55:03.266Z,29.7
2018-05-09T11:00:02.998Z,30.1
2018-05-09T11:05:02.695Z,29.6
2018-05-09T11:10:02.628Z,30.2
2018-05-09T11:15:03.224Z,31.2
2018-05-09T11:20:02.803Z,31.8
2018-05-09T11:25:02.421Z,30.6
2018-05-09T11:30:02.998Z,32.5
2018-05-09T11:35:02.622Z,30.3
2018-05-09T11:40:03.228Z,30.3
2018-05-09T11:45:02.826Z,30.3
2018-05-09T11:50:03.367Z,30.3
2018-05-09T11:55:02.880Z,30.1
2018-05-09T12:00:02.460Z,30.2
2018-05-09T12:05:03.045Z,30.8
2018-05-09T12:10:02.673Z,30.8
2018-05-09T12:15:03.349Z,30.8
2018-05-09T12:20:02.910Z,31.8
2018-05-09T12:25:02.529Z,30.3
2018-05-09T12:30:03.105Z,31.6
2018-05-09T12:35:02.842Z,32.0
2018-05-09T12:40:02.456Z,31.7
2018-05-09T12:45:03.095Z,32.7
2018-05-09T12:50:02.724Z,31.7
2018-05-09T12:55:03.302Z,31.8
2018-05-09T13:00:02.825Z,31.7
2018-05-09T13:05:02.405Z,30.7
2018-05-09T13:10:03.083Z,29.5
2018-05-09T13:15:02.598Z,30.3
2018-05-09T13:20:03.177Z,30.8
2018-05-09T13:25:02.738Z,30.0
2018-05-09T13:30:03.248Z,30.1
2018-05-09T13:35:02.794Z,30.2
2018-05-09T13:40:02.681Z,31.8
2018-05-09T13:45:02.649Z,31.3
2018-05-09T13:50:03.277Z,31.7
2018-05-09T13:55:02.887Z,30.1
2018-05-09T14:00:02.523Z,32.2
2018-05-09T14:05:03.330Z,30.6
2018-05-09T14:10:02.983Z,31.1
2018-05-09T14:15:02.575Z,29.0
2018-05-09T14:20:03.166Z,29.7
2018-05-09T14:25:02.747Z,30.2
2018-05-09T14:30:03.288Z,31.6
2018-05-09T14:35:02.909Z,31.7
2018-05-09T14:40:02.606Z,31.7
2018-05-09T14:45:03.239Z,32.0
2018-05-09T14:50:02.849Z,32.5
2018-05-09T14:55:02.439Z,32.7
2018-05-09T15:00:02.968Z,33.7
2018-05-09T15:05:02.557Z,35.5
2018-05-09T15:10:03.194Z,31.3
2018-05-09T15:15:02.684Z,32.2
2018-05-09T15:20:02.383Z,31.2
2018-05-09T15:25:03.005Z,29.2
2018-05-09T15:30:02.546Z,30.2
2018-05-09T15:35:03.176Z,31.7
2018-05-09T15:40:02.858Z,31.8
2018-05-09T15:45:02.471Z,31.8
2018-05-09T15:50:03.301Z,30.5
2018-05-09T15:55:02.903Z,32.0
2018-05-09T16:00:02.526Z,32.5
2018-05-09T16:05:03.255Z,31.8
2018-05-09T16:10:02.892Z,30.8
2018-05-09T16:15:02.442Z,28.5
2018-05-09T16:20:03.041Z,28.5
2018-05-09T16:25:02.667Z,28.1
2018-05-09T16:30:03.240Z,28.5
2018-05-09T16:35:02.756Z,28.3
2018-05-09T16:40:03.373Z,28.2
2018-05-09T16:45:02.961Z,28.3
2018-05-09T16:50:02.570Z,27.7
2018-05-09T16:55:03.335Z,27.7
2018-05-09T17:00:02.900Z,27.5
2018-05-09T17:05:02.496Z,27.2
2018-05-09T17:10:03.112Z,26.7
2018-05-09T17:15:02.666Z,26.6
2018-05-09T17:20:03.377Z,26.5
2018-05-09T17:25:02.986Z,26.0
2018-05-09T17:30:02.781Z,25.8
2018-05-09T17:35:03.505Z,25.7
2018-05-09T17:40:03.166Z,25.5
2018-05-09T17:45:02.799Z,25.3
2018-05-09T17:50:03.388Z,25.2
2018-05-09T17:55:02.918Z,25.2
2018-05-09T18:00:02.454Z,25.1
2018-05-09T18:05:03.049Z,25.1
2018-05-09T18:10:02.650Z,25.0
2018-05-09T18:15:03.243Z,25.0
2018-05-09T18:20:02.797Z,24.8
2018-05-09T18:25:03.520Z,24.8
2018-05-09T18:30:03.148Z,24.8
2018-05-09T18:35:02.727Z,24.7
2018-05-09T18:40:03.379Z,24.2
2018-05-09T18:45:03.209Z,24.0
2018-05-09T18:50:02.813Z,23.7
2018-05-09T18:55:02.414Z,23.2
2018-05-09T19:00:03.017Z,23.2
2018-05-09T19:05:02.728Z,22.7
2018-05-09T19:10:02.533Z,22.6
2018-05-09T19:15:03.107Z,22.6
2018-05-09T19:20:02.772Z,22.3
2018-05-09T19:25:03.314Z,22.2
2018-05-09T19:30:03.252Z,22.1
2018-05-09T19:35:02.842Z,22.0
2018-05-09T19:40:02.499Z,21.8
2018-05-09T19:45:03.011Z,21.7
2018-05-09T19:50:02.544Z,21.7
2018-05-09T19:55:03.132Z,21.6
2018-05-09T20:00:03.164Z,21.6
2018-05-09T20:05:02.759Z,21.6
2018-05-09T20:10:02.437Z,21.3
2018-05-09T20:15:03.005Z,21.3
2018-05-09T20:20:02.513Z,21.2
2018-05-09T20:25:03.082Z,21.2
2018-05-09T20:30:02.628Z,21.2
2018-05-09T20:35:03.181Z,21.0
2018-05-09T20:40:02.809Z,20.8
2018-05-09T20:45:02.410Z,20.7
2018-05-09T20:50:02.944Z,20.7
2018-05-09T20:55:02.535Z,20.7
2018-05-09T21:00:03.157Z,20.7
2018-05-09T21:05:02.757Z,20.6
2018-05-09T21:10:02.378Z,20.3
2018-05-09T21:15:02.856Z,20.3
2018-05-09T21:20:02.566Z,20.2
2018-05-09T21:25:02.379Z,20.2
2018-05-09T21:30:02.929Z,20.0
2018-05-09T21:35:02.449Z,20.0
2018-05-09T21:40:03.066Z,19.7
2018-05-09T21:45:02.610Z,19.7
2018-05-09T21:50:03.041Z,19.7
2018-05-09T21:55:02.571Z,19.5
2018-05-09T22:00:03.223Z,19.5
2018-05-09T22:05:02.824Z,19.5
2018-05-09T22:10:02.458Z,19.5
2018-05-09T22:15:03.083Z,19.3
2018-05-09T22:20:02.608Z,19.2
2018-05-09T22:25:03.126Z,19.1
2018-05-09T22:30:02.651Z,19.1
2018-05-09T22:35:03.172Z,19.0
2018-05-09T22:40:02.717Z,18.8
2018-05-09T22:45:03.296Z,18.8
2018-05-09T22:50:02.810Z,18.8
2018-05-09T22:55:03.432Z,18.7
2018-05-09T23:00:04.881Z,18.7
2018-05-09T23:05:02.677Z,18.7
2018-05-09T23:10:02.928Z,18.6
2018-05-09T23:15:02.403Z,18.6
2018-05-09T23:20:03.007Z,18.5
2018-05-09T23:25:02.628Z,18.5
2018-05-09T23:30:03.219Z,18.5
2018-05-09T23:35:02.819Z,18.2
2018-05-09T23:40:03.367Z,17.7
2018-05-09T23:45:02.957Z,17.5
2018-05-09T23:50:02.544Z,17.2
2018-05-09T23:55:03.102Z,17.0
